Tiruchirappalli, India

12:39 PM IST on June 29, 2017 (GMT +0530)
Tiruchirappalli | | Change Station

Elev 289 ft 10.77 °N, 78.72 °E | Updated 9 minutes ago

Partly Cloudy
Partly Cloudy
99 °F
Feels Like 103 °F
N
13
Wind Variable Wind from West
Gusts 24 mph

Today
High -- | Low -- °F
--% Chance of Precip.
Yesterday
High -- | Low -- °F
Precip. -- in
Pressure 29.68 in
Visibility 5.0 miles
Clouds Scattered Clouds 1600 ft
Heat Index 103 °F
Dew Point 66 °F
Humidity 35%
Rainfall 0.00 in
Snow Depth Not available.
5:56 AM 6:41 PM
Waxing Crescent, 32% visible
METAR VOTR 290700Z 26011G21KT 8000 SCT016 37/19 Q1005 NOSIG
Pressure 29.68 in
Visibility 5.0 miles
Clouds Scattered Clouds 1600 ft
Heat Index 103 °F
Dew Point 66 °F
Humidity 35%
Rainfall 0.00 in
Snow Depth Not available.
5:56 AM 6:41 PM
Waxing Crescent, 32% visible
METAR VOTR 290700Z 26011G21KT 8000 SCT016 37/19 Q1005 NOSIG

Get Severe Weather Alerts

Thanks for signing up!

Be on the lookout for a verification email in your inbox.

You'll start receiving the daily forecast at 6 AM.

×

10-Day Weather Forecast

No radar image for this location.
×

Almanac

Astronomy

Jun. 29, 2017 Rise Set
Actual Time
Civil Twilight
Nautical Twilight
Astronomical Twilight
Moon
Length of Visible Light
Length of Day
Tomorrow will be .
, % of the Moon is Illuminated

Today's Extremes

Country Highs Country Lows

Community

WunderPhotos

Category 6

Welcome to Category 6. This is the collective home for Weather Underground's featured writeups by Dr. Jeff Masters (right), Bob Henson (left), Chris Burt, and other regular contributors.

Nearby

Air Quality

  Air Quality AQ Index Pollutant
Not available.

Snow Depth

Station Depth Elevation

Earthquake Activity

City Distance Mag. Time & Date
Minimum magnitude displayed is 2.5.

Coastal Water Temperatures

Place Temperature

Stations

Nearby Weather Stations

Station Location Temp. Windchill Dew Point Humidity Wind Precip. Elev Updated Type